Roswell International Air Center Airport
KROW : now visible

Airfield :











YOU CAN JOIN US ON...

 
LOGIN :

Register | Disclaimer

   EN    FR    IT 

 









Legend :    VFR   Marginal VFR   IFR   Intensive IFR   Very Intensive IFR
Visi :
Ceiling :
>= 8 km
>= 3000ft
5 to 8 km
1000 to 3000 ft
1500m to 5 km
500 to 1000 ft
800 to 1500m
200 to 500 ft
< 800m
< 200 ft
Symbols :   Thunderstorms  Fog  Heavy snow  Heavy precipitations  Wind > 20 kt






- Airport Elevation : 3671 ft
- IATA code : ROW


KROW - Roswell International Air Center

CURRENT METAR :
  • 060451Z 08003KT 10SM FEW034 SCT041 SCT048 16/14 A3027 RMK AO2 SLP206 T01610144

EXPIRED METARs :
  • 060351Z 00000KT 10SM FEW070 BKN085 OVC100 16/14 A3025 RMK AO2 LTG DSNT W SLP203 T01610139
  • 060251Z 02005KT 10SM FEW032 BKN046 OVC075 16/14 A3024 RMK AO2 SLP198 60002 T01610144 53022
  • 060151Z 11003KT 10SM BKN070 OVC100 17/14 A3021 RMK AO2 LTG DSNT N RAE25 TSE0054 SLP186 P0002 T01670139

TAF KROW
Valid from the 06 at 00:00 until the 07 at 00:00 UTC


060023Z 0600/0624 36011KT P6SM VCSH SCT040 BKN080
TEMPO 0600/0603 VRB18G28KT 5SM -TSRA SCT025 BKN040CB
FM060300 01011KT 6SM -SHRA SCT025 BKN035
FM060600 01006KT P6SM VCSH SCT025 OVC035
FM062000 12007KT P6SM VCSH SCT040 BKN090
KZAB FIR / North America



MET'MAP, your aeronautical weather chart ! - Copyright ORBIFLY December 2007 - Disclaimer

ORBIFLY MET'MAP TEAM :

Programming & Development : Alexandra Zaïnal
Original concept : Baudouin d'Aumeries
Technical & hardware support : Manuel Goepfert
Assistance : Marc-Olivier Méhu




SOURCES & CREDITS :

   NOAA       Earth
Advisory